Time;durP1;ratioP1;P1;durP2;ratioP2;P2;SDS_P1;SDS_P2;PMS_P1;PMS_P2;Temp;Humidity;BMP_temperature;BMP_pressure;BME280_temperature;BME280_humidity;BME280_pressure;Samples;Min_cycle;Max_cycle;Signal;HPM_P1;HPM_P2
2020/12/30 00:02:28;;;;;;;6.82;2.60;;;3.40;72.90;;;1.27;74.15;94363.00;4957440;28;20140;-74
2020/12/30 00:04:55;;;;;;;6.35;2.65;;;3.40;73.00;;;1.26;73.55;94363.19;4943574;28;20034;-75
2020/12/30 00:07:21;;;;;;;4.90;2.50;;;3.40;72.60;;;1.25;73.87;94361.59;4958148;28;20508;-77
2020/12/30 00:09:48;;;;;;;6.80;3.35;;;3.40;72.80;;;1.25;73.70;94361.59;4939124;28;20053;-74
2020/12/30 00:12:15;;;;;;;24.77;8.75;;;3.40;72.70;;;1.23;74.45;94370.34;4951540;28;20066;-77
2020/12/30 00:14:41;;;;;;;23.23;9.80;;;3.40;72.60;;;1.20;73.88;94365.50;4958539;28;20026;-76
2020/12/30 00:17:07;;;;;;;18.65;6.72;;;3.30;72.60;;;1.16;73.94;94366.84;4973685;28;20703;-75
2020/12/30 00:19:32;;;;;;;15.80;6.00;;;3.30;72.90;;;1.12;74.12;94367.34;4974687;28;20058;-74
2020/12/30 00:21:58;;;;;;;11.02;4.72;;;3.30;73.00;;;1.10;74.14;94374.47;4973940;28;20042;-74
2020/12/30 00:24:24;;;;;;;8.93;4.00;;;3.20;73.00;;;1.06;74.31;94375.81;4990172;28;20220;-78
2020/12/30 00:26:50;;;;;;;9.65;4.18;;;3.10;73.30;;;0.98;73.86;94366.31;4957520;28;20090;-74
2020/12/30 00:29:15;;;;;;;7.68;3.60;;;3.10;73.40;;;0.95;74.46;94377.03;4943379;28;20124;-76
2020/12/30 00:31:41;;;;;;;9.18;3.83;;;3.10;73.60;;;0.90;74.51;94374.13;4957753;28;20125;-75
2020/12/30 00:34:07;;;;;;;7.20;3.33;;;3.00;73.50;;;0.86;74.12;94378.03;4973579;28;20072;-73
2020/12/30 00:36:42;;;;;;;10.45;3.90;;;3.00;73.60;;;0.79;75.38;94385.69;4957318;28;20447;-73
2020/12/30 00:39:07;;;;;;;9.40;3.83;;;2.90;73.40;;;0.75;74.31;94386.19;4953329;28;20035;-76
2020/12/30 00:41:33;;;;;;;7.45;3.67;;;2.90;74.20;;;0.74;74.76;94379.41;4970208;28;20121;-73
2020/12/30 00:44:00;;;;;;;6.13;2.97;;;2.80;74.40;;;0.71;74.81;94384.94;4954212;28;20062;-77
2020/12/30 00:46:26;;;;;;;8.27;4.07;;;2.80;74.60;;;0.69;74.59;94390.28;4973682;28;20076;-75
2020/12/30 00:48:52;;;;;;;10.07;4.28;;;2.80;74.80;;;0.68;74.90;94393.00;4989043;28;20506;-73
2020/12/30 00:51:17;;;;;;;6.78;3.67;;;2.80;74.80;;;0.63;74.68;94387.56;4973651;28;20042;-74
2020/12/30 00:53:43;;;;;;;8.18;3.67;;;2.80;74.50;;;0.57;74.92;94384.69;4970069;28;20110;-74
2020/12/30 00:56:13;;;;;;;9.50;4.03;;;2.70;74.60;;;0.57;74.97;94389.84;4943834;28;20085;-71
2020/12/30 00:58:39;;;;;;;7.50;3.10;;;2.70;75.10;;;0.56;75.21;94396.00;4969634;28;20027;-74
2020/12/30 01:01:08;;;;;;;4.45;2.63;;;2.70;75.30;;;0.53;76.11;94392.94;4987365;28;20093;-74
2020/12/30 01:03:35;;;;;;;6.18;3.10;;;2.70;75.10;;;0.49;75.00;94397.66;4970512;28;20105;-75
2020/12/30 01:06:01;;;;;;;5.50;3.17;;;2.70;75.10;;;0.47;75.53;94394.44;4944400;28;20046;-74
2020/12/30 01:08:27;;;;;;;8.65;3.20;;;2.70;75.10;;;0.43;75.60;94393.13;4940517;28;20366;-77
2020/12/30 01:10:53;;;;;;;4.97;2.60;;;2.60;75.20;;;0.43;75.36;94403.50;4942201;28;20049;-75
2020/12/30 01:13:19;;;;;;;6.20;2.90;;;2.60;75.70;;;0.42;75.23;94403.66;4973386;28;20486;-74
2020/12/30 01:15:44;;;;;;;6.80;3.17;;;2.60;75.50;;;0.39;75.19;94402.22;4972969;28;20480;-73
2020/12/30 01:18:10;;;;;;;5.57;2.80;;;2.60;75.40;;;0.35;75.36;94411.28;4956667;28;20560;-75
2020/12/30 01:20:36;;;;;;;7.78;3.28;;;2.60;75.20;;;0.32;75.64;94414.22;4989010;28;20080;-74
2020/12/30 01:23:02;;;;;;;6.18;3.00;;;2.50;75.20;;;0.29;75.58;94407.59;4989217;28;20549;-74
2020/12/30 01:25:28;;;;;;;7.32;3.30;;;2.50;75.40;;;0.28;75.93;94412.94;4973107;28;20038;-74
2020/12/30 01:27:54;;;;;;;6.45;2.65;;;2.50;75.40;;;0.26;75.56;94412.31;4972266;28;20053;-74
2020/12/30 01:30:20;;;;;;;5.72;3.10;;;2.40;75.30;;;0.24;75.37;94416.84;4940529;28;20106;-74
2020/12/30 01:32:46;;;;;;;6.50;2.60;;;2.40;75.50;;;0.18;75.45;94414.91;4937437;28;20042;-74
2020/12/30 01:35:12;;;;;;;5.38;2.55;;;2.40;75.30;;;0.15;75.46;94425.56;4986368;28;20026;-75
2020/12/30 01:37:37;;;;;;;4.53;2.30;;;2.40;75.20;;;0.11;75.68;94419.13;4972795;28;20034;-72
2020/12/30 01:40:04;;;;;;;7.43;2.85;;;2.30;75.30;;;0.08;76.20;94419.47;4953055;28;20042;-74
2020/12/30 01:42:43;;;;;;;5.93;2.70;;;2.20;75.40;;;0.06;77.52;94421.41;4970954;28;22770;-73
2020/12/30 01:45:09;;;;;;;3.92;2.40;;;2.20;75.30;;;-0.02;76.09;94410.09;4941316;28;20288;-74
2020/12/30 01:47:35;;;;;;;5.35;2.65;;;2.20;75.60;;;0.01;75.88;94423.69;4956818;28;20466;-76
2020/12/30 01:50:04;;;;;;;6.60;2.90;;;2.20;75.50;;;-0.03;76.66;94418.84;4952924;28;20076;-75
2020/12/30 01:52:31;;;;;;;7.88;2.78;;;2.20;75.60;;;-0.06;76.21;94418.34;4952659;28;20077;-75
2020/12/30 01:54:57;;;;;;;4.97;2.47;;;2.10;75.60;;;-0.09;76.28;94418.69;4963442;28;20045;-74
2020/12/30 01:57:22;;;;;;;5.25;2.85;;;2.10;75.70;;;-0.15;76.03;94412.41;4940343;28;20100;-74
2020/12/30 01:59:49;;;;;;;7.68;2.95;;;2.10;75.80;;;-0.14;76.10;94423.56;4944886;28;20461;-76
2020/12/30 02:02:15;;;;;;;7.80;3.10;;;2.10;75.80;;;-0.17;76.07;94421.31;4971832;28;20161;-74
2020/12/30 02:04:51;;;;;;;6.57;2.97;;;2.10;76.00;;;-0.19;77.47;94429.22;4971444;28;20030;-75
2020/12/30 02:07:17;;;;;;;8.80;3.10;;;2.00;76.20;;;-0.20;76.35;94432.78;4972007;28;20038;-74
2020/12/30 02:09:46;;;;;;;7.40;3.08;;;2.00;76.30;;;-0.23;77.20;94438.25;4956283;28;20037;-73
2020/12/30 02:12:12;;;;;;;4.97;2.80;;;2.00;76.60;;;-0.22;76.63;94433.91;4934818;28;20046;-72
2020/12/30 02:14:38;;;;;;;4.38;2.40;;;2.00;76.90;;;-0.26;76.32;94432.59;4936810;28;20030;-76
2020/12/30 02:17:04;;;;;;;5.05;2.63;;;2.00;77.00;;;-0.24;76.60;94430.66;4938534;28;20031;-73
2020/12/30 02:19:29;;;;;;;7.13;2.60;;;2.00;76.90;;;-0.26;76.83;94424.84;4955791;28;20121;-75
2020/12/30 02:21:59;;;;;;;5.60;2.65;;;2.00;77.20;;;-0.25;77.55;94429.03;4939132;28;20046;-72
2020/12/30 02:24:28;;;;;;;4.78;2.70;;;2.00;77.10;;;-0.25;77.55;94432.44;4955959;28;20042;-74
2020/12/30 02:26:55;;;;;;;6.38;3.15;;;2.00;77.20;;;-0.26;76.91;94428.25;4971150;28;20108;-73
2020/12/30 02:29:21;;;;;;;8.38;2.72;;;2.00;77.40;;;-0.26;77.02;94430.81;4956009;28;20038;-74
2020/12/30 02:31:47;;;;;;;6.15;2.80;;;2.00;77.40;;;-0.26;76.87;94428.25;4984467;28;20033;-73
2020/12/30 02:34:13;;;;;;;8.02;2.42;;;2.00;77.50;;;-0.24;77.19;94431.47;4955769;28;20030;-73
2020/12/30 02:36:38;;;;;;;5.90;2.33;;;2.00;77.70;;;-0.25;77.19;94424.69;4970512;28;20050;-72
2020/12/30 02:39:04;;;;;;;5.30;2.28;;;2.00;77.70;;;-0.21;77.11;94430.34;4971368;28;20084;-76
2020/12/30 02:41:30;;;;;;;5.75;2.50;;;2.00;77.80;;;-0.20;77.34;94427.59;4938664;28;20070;-76
2020/12/30 02:43:56;;;;;;;5.90;2.80;;;2.10;77.60;;;-0.18;77.19;94435.19;4936062;28;20433;-76
2020/12/30 02:46:22;;;;;;;4.28;2.30;;;2.10;77.80;;;-0.18;77.27;94445.53;4971313;28;20525;-75
2020/12/30 02:48:47;;;;;;;5.97;3.08;;;2.10;77.60;;;-0.20;77.23;94437.94;4954983;28;20524;-75
2020/12/30 02:51:13;;;;;;;7.50;3.22;;;2.00;77.90;;;-0.21;77.31;94441.50;4969847;28;20133;-74
2020/12/30 02:53:39;;;;;;;10.02;3.15;;;1.90;78.10;;;-0.23;77.46;94440.81;4971637;28;20034;-73
2020/12/30 02:56:05;;;;;;;7.13;3.10;;;1.90;77.90;;;-0.23;77.15;94448.56;4951114;28;20497;-75
2020/12/30 02:58:30;;;;;;;7.30;2.90;;;1.90;78.00;;;-0.23;77.64;94448.56;4986983;28;20121;-74
2020/12/30 03:00:56;;;;;;;5.18;2.67;;;2.00;77.70;;;-0.23;77.35;94448.56;4955183;28;20119;-73
2020/12/30 03:03:22;;;;;;;5.57;2.83;;;2.00;77.50;;;-0.24;77.26;94446.16;4968550;28;20125;-73
2020/12/30 03:05:47;;;;;;;5.15;2.78;;;2.00;77.60;;;-0.29;77.11;94441.50;4939265;28;20117;-75
2020/12/30 03:08:13;;;;;;;7.13;2.95;;;1.90;77.20;;;-0.32;77.51;94442.63;4938656;28;20203;-74
2020/12/30 03:10:39;;;;;;;4.43;2.85;;;1.90;77.30;;;-0.33;77.45;94463.47;4955772;28;20041;-73
2020/12/30 03:13:05;;;;;;;5.82;2.92;;;1.90;77.30;;;-0.35;77.76;94455.88;4969045;28;20502;-75
2020/12/30 03:15:30;;;;;;;5.25;2.70;;;1.90;77.40;;;-0.36;77.65;94449.09;4981898;28;20556;-74
2020/12/30 03:17:56;;;;;;;7.93;2.65;;;1.80;77.30;;;-0.37;77.62;94451.84;4990309;28;20120;-73
2020/12/30 03:20:22;;;;;;;6.22;2.45;;;1.80;77.30;;;-0.38;77.49;94461.38;4982229;28;20596;-73
2020/12/30 03:22:48;;;;;;;6.35;3.17;;;1.80;77.20;;;-0.38;77.49;94460.56;4991444;28;20433;-73
2020/12/30 03:25:13;;;;;;;6.30;2.83;;;1.80;77.10;;;-0.39;77.74;94454.59;4994097;28;20073;-74
2020/12/30 03:27:39;;;;;;;4.60;2.63;;;1.80;77.20;;;-0.37;77.84;94454.41;4994526;28;20180;-74
2020/12/30 03:30:05;;;;;;;4.65;2.78;;;1.90;77.40;;;-0.35;77.77;94460.22;4978015;28;20423;-73
2020/12/30 03:32:31;;;;;;;4.72;2.63;;;1.90;77.20;;;-0.36;77.88;94450.88;4974938;28;20270;-74
2020/12/30 03:34:56;;;;;;;6.88;2.80;;;1.90;77.10;;;-0.34;77.75;94454.09;4958420;28;20052;-73
2020/12/30 03:37:22;;;;;;;4.97;2.70;;;1.90;77.00;;;-0.32;77.69;94465.06;4957656;28;20388;-74
2020/12/30 03:39:49;;;;;;;5.30;2.63;;;1.90;76.90;;;-0.31;77.86;94461.50;4973207;28;20526;-74
2020/12/30 03:42:15;;;;;;;6.60;3.15;;;1.90;77.00;;;-0.31;77.82;94454.56;4973079;28;20406;-73
2020/12/30 03:44:40;;;;;;;7.68;2.80;;;1.90;77.00;;;-0.29;77.72;94459.56;4989930;28;20041;-74
2020/12/30 03:47:06;;;;;;;6.45;2.95;;;2.00;77.00;;;-0.33;77.76;94458.28;4941520;28;20073;-74
2020/12/30 03:49:33;;;;;;;7.55;2.88;;;1.90;77.00;;;-0.29;77.88;94464.75;4941731;28;20045;-74
2020/12/30 03:52:00;;;;;;;7.40;3.13;;;1.90;76.90;;;-0.30;77.71;94460.53;4957867;28;20035;-75
2020/12/30 03:54:29;;;;;;;6.63;2.88;;;1.90;77.20;;;-0.34;78.12;94451.50;4957238;28;20490;-75
2020/12/30 03:56:55;;;;;;;7.15;3.30;;;1.80;77.30;;;-0.36;77.71;94464.59;4941682;28;20076;-73
2020/12/30 03:59:21;;;;;;;5.88;3.15;;;1.70;77.70;;;-0.37;77.53;94459.59;4989495;28;20042;-74
2020/12/30 04:01:46;;;;;;;6.10;3.08;;;1.70;77.70;;;-0.35;77.96;94465.41;4941751;28;20073;-74
2020/12/30 04:04:13;;;;;;;6.68;3.00;;;1.80;77.90;;;-0.34;77.99;94467.00;4956529;28;20120;-72
2020/12/30 04:06:42;;;;;;;6.03;2.80;;;1.80;78.00;;;-0.34;77.88;94467.00;4957556;28;20038;-73
2020/12/30 04:09:08;;;;;;;6.80;2.60;;;1.70;78.10;;;-0.29;77.79;94466.53;4958038;28;20050;-74
2020/12/30 04:11:34;;;;;;;5.93;2.28;;;1.80;78.10;;;-0.28;77.79;94471.53;4941364;28;20062;-73
2020/12/30 04:13:59;;;;;;;5.10;2.72;;;1.80;78.20;;;-0.23;78.01;94471.84;4972961;28;20030;-73
2020/12/30 04:16:25;;;;;;;5.95;2.58;;;1.80;78.20;;;-0.21;78.19;94469.91;4957138;28;20604;-74
2020/12/30 04:18:51;;;;;;;4.43;2.42;;;1.90;78.20;;;-0.17;78.17;94465.22;4957001;28;20561;-72
2020/12/30 04:21:24;;;;;;;5.03;2.22;;;1.90;78.10;;;-0.14;79.23;94468.28;4957438;28;20050;-74
2020/12/30 04:23:50;;;;;;;4.80;2.55;;;2.00;78.00;;;-0.13;78.01;94469.09;4990558;28;20080;-73
2020/12/30 04:26:17;;;;;;;3.97;2.22;;;1.90;78.10;;;-0.12;77.99;94466.34;4940586;28;20030;-74
2020/12/30 04:28:42;;;;;;;5.32;2.42;;;2.00;77.90;;;-0.10;78.07;94472.16;4956506;28;20026;-73
2020/12/30 04:31:12;;;;;;;5.40;2.08;;;2.00;77.90;;;-0.08;78.61;94477.16;4940778;28;20214;-73
2020/12/30 04:33:38;;;;;;;5.20;2.40;;;2.10;77.70;;;-0.05;77.78;94482.00;4940621;28;20048;-73
2020/12/30 04:36:04;;;;;;;5.97;2.50;;;2.10;77.50;;;-0.03;78.05;94480.06;4940041;28;20582;-73
2020/12/30 04:38:31;;;;;;;6.03;2.67;;;2.10;77.50;;;-0.06;78.06;94480.38;4968774;28;20038;-73
2020/12/30 04:41:10;;;;;;;7.93;2.80;;;2.00;77.80;;;-0.05;78.66;94480.22;4955330;28;20023;-73
2020/12/30 04:43:38;;;;;;;4.85;2.30;;;2.00;77.90;;;-0.04;78.18;94481.81;4980970;28;20038;-74
2020/12/30 04:46:04;;;;;;;5.95;2.50;;;2.00;77.90;;;-0.04;77.76;94489.56;4971911;28;20058;-73
2020/12/30 04:48:32;;;;;;;6.68;2.50;;;2.00;77.90;;;-0.02;78.61;94497.97;4970395;28;20259;-73
2020/12/30 04:50:58;;;;;;;6.72;2.80;;;2.10;77.80;;;-0.04;78.19;94494.75;4953140;28;20047;-75
2020/12/30 04:53:24;;;;;;;6.30;2.70;;;2.00;78.00;;;-0.01;78.10;94504.75;4977627;28;20520;-74
2020/12/30 04:55:51;;;;;;;4.40;2.50;;;2.10;78.00;;;-0.01;77.77;94497.00;4983041;28;20037;-74
2020/12/30 04:58:18;;;;;;;5.53;2.20;;;2.00;78.00;;;0.02;78.50;94492.50;4955945;28;20066;-72
2020/12/30 05:00:45;;;;;;;4.75;2.70;;;2.10;77.80;;;0.05;78.22;94497.34;4955677;28;20033;-74
2020/12/30 05:03:11;;;;;;;5.45;2.38;;;2.10;77.80;;;0.06;77.70;94498.97;4956537;28;20035;-74
2020/12/30 05:05:37;;;;;;;8.98;2.20;;;2.20;77.70;;;0.07;78.30;94501.38;4972812;28;20027;-73
2020/12/30 05:08:10;;;;;;;4.78;2.53;;;2.10;77.70;;;0.06;78.65;94504.94;4940142;28;20105;-74
2020/12/30 05:10:40;;;;;;;5.07;2.88;;;2.10;77.50;;;0.04;78.84;94496.53;4940795;28;20042;-73
2020/12/30 05:13:06;;;;;;;4.63;2.30;;;2.10;77.80;;;0.03;78.16;94499.28;4952597;28;20039;-73
2020/12/30 05:15:32;;;;;;;6.50;2.75;;;2.10;78.00;;;0.02;78.14;94508.81;4984941;28;20035;-74
2020/12/30 05:18:05;;;;;;;4.90;2.60;;;2.10;78.00;;;0.02;78.07;94508.00;4969431;28;20082;-74
2020/12/30 05:20:37;;;;;;;10.20;2.75;;;2.10;78.10;;;0.01;78.42;94512.38;4961596;28;20088;-73
2020/12/30 05:23:09;;;;;;;4.93;2.60;;;2.10;78.00;;;0.03;79.32;94519.97;4988110;28;20613;-74
2020/12/30 05:25:42;;;;;;;5.78;2.92;;;2.10;78.00;;;0.03;79.23;94519.97;4972119;28;20045;-75
2020/12/30 05:28:11;;;;;;;5.78;2.50;;;2.10;78.00;;;0.03;78.37;94530.31;4956369;28;20286;-73
2020/12/30 05:30:37;;;;;;;6.97;3.13;;;2.20;78.10;;;0.05;78.44;94525.78;4971710;28;20037;-75
2020/12/30 05:33:03;;;;;;;5.53;3.00;;;2.30;77.80;;;0.06;78.76;94525.59;4971664;28;20430;-74
2020/12/30 05:35:30;;;;;;;5.95;2.88;;;2.30;77.70;;;0.04;78.61;94526.75;4940221;28;20042;-73
2020/12/30 05:37:56;;;;;;;4.55;2.63;;;2.30;77.60;;;0.08;78.51;94528.03;4936531;28;20027;-74
2020/12/30 05:40:33;;;;;;;5.50;2.80;;;2.30;77.60;;;0.09;79.51;94532.22;4944059;28;20682;-75
2020/12/30 05:43:19;;;;;;;3.97;2.40;;;2.20;77.60;;;0.10;79.74;94536.44;4967958;28;20097;-74
2020/12/30 05:45:51;;;;;;;5.88;2.75;;;2.30;77.70;;;0.11;78.78;94538.03;4968604;28;20047;-73
2020/12/30 05:48:17;;;;;;;9.27;3.22;;;2.30;77.40;;;0.12;78.34;94545.63;4948975;28;20069;-71
2020/12/30 05:50:54;;;;;;;5.40;2.50;;;2.30;77.20;;;0.12;79.34;94550.00;4971629;28;20038;-69
2020/12/30 05:53:20;;;;;;;4.97;2.55;;;2.30;77.40;;;0.12;78.32;94555.16;4935279;28;20133;-74
2020/12/30 05:55:49;;;;;;;4.85;2.67;;;2.30;77.20;;;0.10;78.25;94552.75;4951510;28;20037;-71
2020/12/30 05:58:16;;;;;;;4.93;2.28;;;2.20;77.60;;;0.10;78.37;94551.94;4961661;28;20046;-73
2020/12/30 06:00:43;;;;;;;4.22;2.47;;;2.20;77.50;;;0.09;78.81;94553.72;4972361;28;20104;-75
2020/12/30 06:03:12;;;;;;;5.50;2.40;;;2.10;77.50;;;0.11;78.55;94558.72;4956678;28;20046;-75
2020/12/30 06:05:38;;;;;;;6.43;2.63;;;2.20;77.70;;;0.10;78.47;94565.66;4974977;28;20424;-74
2020/12/30 06:08:04;;;;;;;6.28;2.60;;;2.10;77.90;;;0.11;78.32;94569.06;4988809;28;20045;-73
2020/12/30 06:10:30;;;;;;;6.10;2.85;;;2.20;77.90;;;0.09;78.65;94571.81;4975153;28;20533;-72
2020/12/30 06:12:58;;;;;;;5.07;2.45;;;2.10;77.90;;;0.09;78.78;94571.00;4990033;28;20065;-73
2020/12/30 06:15:25;;;;;;;6.45;2.70;;;2.20;78.10;;;0.09;78.68;94574.41;4985816;28;20087;-72
2020/12/30 06:18:04;;;;;;;6.50;2.60;;;2.10;78.00;;;0.09;79.97;94571.00;5010092;28;20029;-73
2020/12/30 06:20:36;;;;;;;5.00;2.78;;;2.10;78.10;;;0.08;79.16;94569.38;4987073;28;20038;-72
2020/12/30 06:23:03;;;;;;;7.03;3.13;;;2.10;78.20;;;0.08;78.47;94570.19;4968683;28;20131;-72
2020/12/30 06:25:36;;;;;;;4.70;2.20;;;2.10;78.30;;;0.10;79.45;94577.78;4986847;28;20034;-72
2020/12/30 06:28:13;;;;;;;5.18;2.58;;;2.10;78.30;;;0.08;79.85;94574.56;4966240;28;20038;-72
2020/12/30 06:30:40;;;;;;;6.97;2.90;;;2.10;78.20;;;0.12;78.79;94586.19;4990531;28;20176;-72
2020/12/30 06:33:06;;;;;;;5.00;2.40;;;2.20;78.10;;;0.15;78.72;94584.06;4969669;28;20161;-72
2020/12/30 06:35:34;;;;;;;4.88;2.40;;;2.30;77.90;;;0.18;78.46;94588.91;4989149;28;20125;-72
2020/12/30 06:38:22;;;;;;;5.32;2.47;;;2.40;77.70;;;0.20;79.46;94589.56;4989709;28;20450;-72
2020/12/30 06:41:01;;;;;;;5.35;2.47;;;2.40;77.50;;;0.22;79.88;94587.63;4958092;28;20037;-72
2020/12/30 06:43:50;;;;;;;5.32;2.60;;;2.40;77.40;;;0.21;79.62;94580.03;4961886;28;20057;-72
2020/12/30 06:46:24;;;;;;;5.43;2.45;;;2.50;77.50;;;0.25;79.40;94589.91;4969787;28;20437;-70
2020/12/30 06:49:05;;;;;;;5.40;2.58;;;2.50;77.40;;;0.22;79.78;94594.56;4985304;28;20042;-73
2020/12/30 06:51:38;;;;;;;;;;;2.40;77.50;;;0.23;79.75;94604.78;4967091;28;20035;-72
2020/12/30 06:54:04;;;;;;;5.82;2.28;;;2.40;77.50;;;0.27;78.63;94605.25;4999413;28;20088;-72
2020/12/30 06:56:45;;;;;;;3.95;2.08;;;2.40;77.50;;;0.23;79.88;94603.97;4950091;28;20042;-73
2020/12/30 06:59:16;;;;;;;5.40;2.75;;;2.40;77.40;;;0.23;78.92;94601.38;4970486;28;20066;-72
2020/12/30 07:02:01;;;;;;;6.40;2.90;;;2.60;77.30;;;0.28;79.60;94607.69;4971134;28;20029;-72
2020/12/30 07:04:28;;;;;;;5.50;2.40;;;2.60;77.20;;;0.27;78.37;94608.66;4970464;28;20117;-72
2020/12/30 07:06:54;;;;;;;4.97;2.70;;;2.50;77.10;;;0.27;78.86;94615.59;4954624;28;20026;-72
2020/12/30 07:09:40;;;;;;;5.07;2.40;;;2.60;77.20;;;0.27;79.27;94616.41;4954889;28;20118;-72
2020/12/30 07:12:07;;;;;;;8.60;2.83;;;2.60;77.20;;;0.27;78.87;94623.34;4953804;28;20085;-72
2020/12/30 07:14:35;;;;;;;5.38;3.17;;;2.50;77.40;;;0.27;78.44;94618.19;4986534;28;20042;-73
2020/12/30 07:17:02;;;;;;;7.97;3.70;;;2.60;77.10;;;0.28;78.88;94618.03;4986343;28;20026;-72
2020/12/30 07:19:32;;;;;;;7.82;3.75;;;2.60;77.20;;;0.28;78.92;94619.78;4986985;28;20572;-72
2020/12/30 07:22:08;;;;;;;6.50;3.53;;;2.60;77.00;;;0.29;79.65;94626.59;4970553;28;20030;-72
2020/12/30 07:24:43;;;;;;;7.05;3.30;;;2.60;77.00;;;0.29;79.05;94629.16;4986229;28;20105;-72
2020/12/30 07:27:13;;;;;;;8.98;3.63;;;2.60;76.90;;;0.30;79.28;94630.78;4969690;28;20053;-72
2020/12/30 07:29:40;;;;;;;5.67;3.30;;;2.60;76.80;;;0.33;78.65;94629.66;4955059;28;20026;-72
2020/12/30 07:32:06;;;;;;;8.63;3.53;;;2.60;76.80;;;0.34;78.86;94636.44;4985621;28;20034;-72
2020/12/30 07:34:35;;;;;;;6.82;3.22;;;2.70;76.90;;;0.34;78.77;94637.25;4938500;28;20038;-71
2020/12/30 07:37:02;;;;;;;5.88;3.10;;;2.60;76.50;;;0.33;78.68;94643.38;4969996;28;20031;-71
2020/12/30 07:39:40;;;;;;;6.63;3.05;;;2.60;76.40;;;0.33;78.93;94643.38;4996875;28;20030;-71
2020/12/30 07:42:07;;;;;;;5.57;2.90;;;2.60;76.50;;;0.32;79.17;94648.72;5003659;28;20061;-72
2020/12/30 07:44:33;;;;;;;6.22;3.47;;;2.60;76.40;;;0.28;78.57;94649.03;4970598;28;20042;-72
2020/12/30 07:47:05;;;;;;;9.93;3.30;;;2.60;76.30;;;0.29;79.28;94650.66;4969754;28;20136;-70
2020/12/30 07:49:32;;;;;;;15.23;7.75;;;2.60;76.10;;;0.31;78.74;94647.91;4970189;28;20042;-70
2020/12/30 07:52:00;;;;;;;18.35;8.95;;;2.60;76.40;;;0.31;78.84;94653.09;4953875;28;20528;-70
2020/12/30 07:54:26;;;;;;;20.13;10.98;;;2.70;76.50;;;0.35;78.51;94649.19;4935702;28;20034;-72
2020/12/30 07:57:12;;;;;;;26.92;14.10;;;2.70;76.50;;;0.35;79.81;94654.38;4936844;28;20065;-70
2020/12/30 07:59:41;;;;;;;48.15;24.08;;;2.80;76.30;;;0.36;78.97;94656.00;4950514;28;20089;-72
2020/12/30 08:02:11;;;;;;;31.02;16.25;;;2.80;76.30;;;0.41;79.07;94664.06;4968794;28;20042;-74
2020/12/30 08:04:38;;;;;;;16.00;9.30;;;2.90;76.00;;;0.42;78.86;94657.91;4965682;28;20089;-73
2020/12/30 08:07:08;;;;;;;9.40;5.78;;;3.00;75.90;;;0.49;79.26;94665.84;4982038;28;20073;-74
2020/12/30 08:09:38;;;;;;;8.63;4.72;;;3.10;75.60;;;0.58;79.14;94676.03;4964494;28;20049;-73
2020/12/30 08:12:11;;;;;;;13.50;7.00;;;3.20;75.10;;;0.67;79.22;94678.59;4975874;28;20320;-68
2020/12/30 08:14:39;;;;;;;21.60;11.98;;;3.30;75.80;;;0.78;79.34;94680.88;4961499;28;20073;-73
2020/12/30 08:17:07;;;;;;;19.60;11.00;;;3.40;75.90;;;0.91;79.63;94681.19;4960117;28;20108;-74
2020/12/30 08:19:45;;;;;;;9.00;5.13;;;3.60;75.80;;;1.03;79.29;94685.03;4960603;28;20037;-69
2020/12/30 08:22:17;;;;;;;7.85;4.20;;;3.80;74.40;;;1.14;79.12;94681.28;4958319;28;20116;-75
2020/12/30 08:24:47;;;;;;;11.45;7.00;;;3.90;73.50;;;1.30;79.33;94683.00;4973072;28;20031;-67
2020/12/30 08:27:15;;;;;;;22.98;11.13;;;4.10;73.00;;;1.42;78.91;94681.69;4976161;28;20090;-69
2020/12/30 08:29:42;;;;;;;29.15;17.20;;;4.10;72.60;;;1.56;78.50;94682.75;4991988;28;20034;-72
2020/12/30 08:32:27;;;;;;;12.68;7.72;;;4.30;72.20;;;1.69;78.68;94681.25;4981407;28;20039;-72
2020/12/30 08:34:55;;;;;;;7.82;3.42;;;4.50;72.00;;;1.74;77.95;94684.13;4993566;28;20120;-73
2020/12/30 08:37:32;;;;;;;4.68;2.55;;;4.50;71.70;;;1.89;76.99;94693.78;5008752;28;20029;-72
2020/12/30 08:40:10;;;;;;;8.77;3.28;;;4.50;71.30;;;1.95;76.58;94696.50;5006212;28;20521;-72
2020/12/30 08:43:20;;;;;;;22.83;10.70;;;4.60;71.00;;;2.02;76.96;94701.81;4992455;28;20081;-72
2020/12/30 08:45:48;;;;;;;9.98;5.35;;;4.60;70.90;;;2.07;76.93;94700.34;4994871;28;20034;-72
2020/12/30 08:48:19;;;;;;;5.80;3.47;;;4.70;70.40;;;2.13;77.02;94711.81;5007485;28;20061;-72
2020/12/30 08:50:45;;;;;;;6.15;2.90;;;4.70;70.20;;;2.17;77.43;94714.88;4988496;28;20529;-73
2020/12/30 08:53:12;;;;;;;5.10;2.90;;;4.70;70.20;;;2.19;76.88;94720.69;4988842;28;20150;-74
2020/12/30 08:55:38;;;;;;;6.45;2.58;;;4.70;70.10;;;2.24;77.06;94716.59;4998096;28;20030;-72
2020/12/30 08:58:03;;;;;;;8.25;2.90;;;4.90;69.60;;;2.28;76.85;94723.06;4990944;28;20096;-72
2020/12/30 09:00:34;;;;;;;6.18;3.15;;;4.90;69.30;;;2.31;76.51;94721.94;4975507;28;20040;-73
2020/12/30 09:03:15;;;;;;;18.37;8.80;;;4.90;69.40;;;2.38;76.35;94731.44;4975943;28;20061;-74
2020/12/30 09:05:49;;;;;;;18.65;8.77;;;5.00;69.70;;;2.46;75.76;94731.38;4990643;28;20073;-72
2020/12/30 09:08:20;;;;;;;8.02;3.63;;;5.10;69.40;;;2.54;75.75;94734.91;4959664;28;20063;-72
2020/12/30 09:10:46;;;;;;;5.18;2.42;;;5.20;68.90;;;2.62;76.12;94735.66;4999794;28;20163;-71
2020/12/30 09:13:23;;;;;;;5.28;2.42;;;5.30;68.20;;;2.67;75.17;94732.53;4989977;28;20073;-70
2020/12/30 09:15:57;;;;;;;4.00;2.30;;;5.20;68.40;;;2.72;75.96;94736.25;4997672;28;20037;-72
2020/12/30 09:18:24;;;;;;;6.80;2.35;;;5.30;68.00;;;2.76;75.81;94736.69;5011311;28;20041;-71
2020/12/30 09:20:50;;;;;;;6.47;2.72;;;5.40;67.50;;;2.80;75.47;94742.34;5007385;28;20034;-71
2020/12/30 09:23:16;;;;;;;16.67;9.75;;;5.30;67.40;;;2.83;75.80;94742.78;5007465;28;20091;-71
2020/12/30 09:25:42;;;;;;;14.55;6.50;;;5.40;67.70;;;2.87;75.65;94741.47;4997842;28;20160;-73
2020/12/30 09:28:21;;;;;;;8.77;2.85;;;5.50;67.20;;;2.91;73.86;94736.72;4974975;28;20497;-70
2020/12/30 09:30:49;;;;;;;4.20;2.47;;;5.60;66.50;;;2.96;75.00;94743.03;4999207;28;20046;-72
2020/12/30 09:33:25;;;;;;;3.83;2.17;;;5.70;66.50;;;3.07;74.70;94736.59;4989222;28;20160;-73
2020/12/30 09:35:51;;;;;;;5.03;2.65;;;5.80;67.10;;;3.17;75.78;94738.91;4978853;28;20456;-69
2020/12/30 09:38:21;;;;;;;6.50;2.47;;;6.10;68.10;;;3.27;74.11;94739.50;4985352;28;20164;-69
2020/12/30 09:40:49;;;;;;;7.23;2.40;;;6.10;65.40;;;3.38;74.44;94744.22;4966457;28;20046;-72
2020/12/30 09:43:22;;;;;;;3.55;1.98;;;6.10;65.30;;;3.45;74.50;94741.75;4969392;28;20270;-66
2020/12/30 09:45:55;;;;;;;5.65;2.40;;;6.10;64.90;;;3.45;74.13;94736.56;4986453;28;20026;-65
2020/12/30 09:48:21;;;;;;;6.40;2.33;;;5.90;64.60;;;3.46;74.22;94733.78;4970570;28;20038;-66
2020/12/30 09:50:48;;;;;;;5.63;2.45;;;5.80;64.50;;;3.48;73.19;94737.00;4955205;28;20045;-66
2020/12/30 09:53:14;;;;;;;7.05;2.97;;;5.90;64.50;;;3.54;73.61;94745.88;4968471;28;20051;-68
2020/12/30 09:55:43;;;;;;;5.35;2.78;;;6.10;64.30;;;3.58;73.36;94747.13;4945260;28;20452;-68
2020/12/30 09:58:09;;;;;;;5.55;2.33;;;6.20;64.60;;;3.67;73.78;94740.88;4987985;28;20136;-67
2020/12/30 10:00:35;;;;;;;5.55;2.42;;;6.30;64.50;;;3.73;73.60;94729.75;4947157;28;20499;-70
2020/12/30 10:03:01;;;;;;;9.70;4.45;;;6.40;63.00;;;3.81;73.63;94731.44;4978075;28;20088;-67
2020/12/30 10:05:26;;;;;;;15.45;9.80;;;6.50;63.30;;;3.86;73.26;94731.72;4964685;28;20041;-71
2020/12/30 10:07:52;;;;;;;11.18;3.85;;;6.60;62.90;;;3.93;73.44;94733.41;4985517;28;20125;-70
2020/12/30 10:10:18;;;;;;;8.40;3.90;;;6.60;62.80;;;3.97;73.04;94721.63;4950886;28;20118;-68
2020/12/30 10:12:44;;;;;;;13.93;6.45;;;6.60;63.00;;;4.01;73.03;94727.28;4971538;28;20248;-67
2020/12/30 10:15:11;;;;;;;6.30;3.53;;;6.60;63.10;;;4.00;72.87;94725.66;4985119;28;20057;-67
2020/12/30 10:17:37;;;;;;;5.22;2.92;;;6.50;63.10;;;4.04;73.01;94732.13;4986864;28;20129;-68
2020/12/30 10:20:04;;;;;;;4.60;2.70;;;6.70;62.80;;;4.09;72.43;94727.19;5005515;28;20443;-67
2020/12/30 10:22:31;;;;;;;4.88;2.80;;;7.00;62.50;;;4.17;73.08;94727.06;5005197;28;20031;-68
2020/12/30 10:24:58;;;;;;;5.40;3.13;;;7.30;61.50;;;4.32;72.55;94727.06;4989041;28;20548;-67
2020/12/30 10:27:23;;;;;;;7.80;3.67;;;7.50;61.00;;;4.46;72.54;94725.38;4973963;28;20128;-68
2020/12/30 10:29:49;;;;;;;6.07;2.78;;;8.10;58.60;;;4.72;72.60;94730.03;4989992;28;20068;-68
2020/12/30 10:32:15;;;;;;;5.45;2.97;;;9.40;55.10;;;5.07;72.42;94720.53;4971838;28;20129;-68
2020/12/30 10:34:40;;;;;;;6.78;3.65;;;10.50;51.90;;;5.46;72.96;94726.03;4990025;28;20147;-69
2020/12/30 10:37:06;;;;;;;6.90;3.63;;;11.20;49.10;;;5.87;72.74;94720.00;4973026;28;20128;-69